Mustafa Sofuoglu — TCOJ7 — position and weather

sailwx.info

Track history (hours):
 
Tides and Currents Weather Stations Pressure Air Temp Water Temp Dewpoint Dewpoint Depression Visibility Wind Speed Wind Dir Waves Ship Positions

Mustafa Sofuoglu

Last reported at 2014-Jul-21 21:32 UTC. Time now 2014-Jul-22 15:30 UTC.
Position N 32°53' E 034°53'.

Length 106 m; draft 6.4 m.

Type: Cargo ship. MMSI: 271000831.

Date/timePositionNaut miles runAvg speedWind from/ knotsBaromVisibWave heightAir tempDewpointWater temp
2014-Jul-21 21:32N 32°53' E 034°53'1513.1
2014-Jul-21 20:24N 32°56' E 034°35'6513.0
2014-Jul-21 15:23N 33°23' E 033°25'1413.2
2014-Jul-21 14:17N 33°32' E 033°11'2313.4
2014-Jul-21 12:33N 33°45' E 032°48'1713.5
2014-Jul-21 11:17N 33°56' E 032°32'1313.5
2014-Jul-21 10:18N 34°03' E 032°18'1013.6
2014-Jul-21 09:32N 34°09' E 032°08'1413.6
2014-Jul-21 08:30N 34°18' E 031°55'1313.6
2014-Jul-21 07:34N 34°25' E 031°42'1413.6
2014-Jul-21 06:34N 34°33' E 031°29'28712.5
2014-Jul-20 07:33N 37°27' E 026°46'1313.2
2014-Jul-20 06:33N 37°37' E 026°36'  
2014-Jul-18 00:19N 43°58' E 034°32'1013.0
2014-Jul-17 23:33N 44°03' E 034°43'1413.5
2014-Jul-17 22:33N 44°11' E 034°59'1413.6
2014-Jul-17 21:33N 44°18' E 035°15'1413.7
2014-Jul-17 20:33N 44°25' E 035°32'  
Track history (hours):
 
Tides and Currents Weather Stations Pressure Air Temp Water Temp Dewpoint Dewpoint Depression Visibility Wind Speed Wind Dir Waves Ship Positions

Mustafa Sofuoglu

Last reported at 2014-Jul-21 21:32 UTC. Time now 2014-Jul-22 15:30 UTC.
Position N 32°53' E 034°53'.

Length 106 m; draft 6.4 m.

Type: Cargo ship. MMSI: 271000831.

Date/timePositionNaut miles runAvg speedWind from/ knotsBaromVisibWave heightAir tempDewpointWater temp
2014-Jul-21 21:32N 32°53' E 034°53'1513.1
2014-Jul-21 20:24N 32°56' E 034°35'6513.0
2014-Jul-21 15:23N 33°23' E 033°25'1413.2
2014-Jul-21 14:17N 33°32' E 033°11'2313.4
2014-Jul-21 12:33N 33°45' E 032°48'1713.5
2014-Jul-21 11:17N 33°56' E 032°32'1313.5
2014-Jul-21 10:18N 34°03' E 032°18'1013.6
2014-Jul-21 09:32N 34°09' E 032°08'1413.6
2014-Jul-21 08:30N 34°18' E 031°55'1313.6
2014-Jul-21 07:34N 34°25' E 031°42'1413.6
2014-Jul-21 06:34N 34°33' E 031°29'28712.5
2014-Jul-20 07:33N 37°27' E 026°46'1313.2
2014-Jul-20 06:33N 37°37' E 026°36'  
2014-Jul-18 00:19N 43°58' E 034°32'1013.0
2014-Jul-17 23:33N 44°03' E 034°43'1413.5
2014-Jul-17 22:33N 44°11' E 034°59'1413.6
2014-Jul-17 21:33N 44°18' E 035°15'1413.7
2014-Jul-17 20:33N 44°25' E 035°32'  

Dump ship's entire track history